Time;durP1;ratioP1;P1;durP2;ratioP2;P2;SDS_P1;SDS_P2;PMS_P1;PMS_P2;Temp;Humidity;BMP_temperature;BMP_pressure;BME280_temperature;BME280_humidity;BME280_pressure;Samples;Min_cycle;Max_cycle;Signal;HPM_P1;HPM_P2
2023/12/04 00:04:43;;;;;;;18.98;13.55;;;;;;;0.88;64.42;100401.22;10343757;28;20518;-63
2023/12/04 00:09:45;;;;;;;16.10;13.23;;;;;;;0.84;64.52;100386.53;10336597;28;20057;-63
2023/12/04 00:14:46;;;;;;;17.20;13.77;;;;;;;0.74;64.28;100372.06;10334982;28;20050;-63
2023/12/04 00:19:48;;;;;;;18.33;14.23;;;;;;;0.72;63.99;100378.28;10356061;28;20045;-62
2023/12/04 00:24:49;;;;;;;20.20;14.07;;;;;;;0.66;64.67;100376.75;10331730;28;20431;-62
2023/12/04 00:29:53;;;;;;;18.88;15.13;;;;;;;0.63;64.29;100362.00;10339582;28;20132;-61
2023/12/04 00:34:54;;;;;;;17.25;14.43;;;;;;;0.70;64.69;100368.69;10333033;28;20700;-62
2023/12/04 00:39:56;;;;;;;16.83;14.23;;;;;;;0.32;64.17;100321.22;10345159;28;20200;-63
2023/12/04 00:44:57;;;;;;;18.23;14.45;;;;;;;0.35;64.35;100343.84;10339749;28;20615;-59
2023/12/04 00:49:59;;;;;;;17.20;14.20;;;;;;;0.43;64.71;100344.41;10345125;28;20785;-62
2023/12/04 00:55:00;;;;;;;17.05;13.70;;;;;;;0.39;64.39;100334.09;10336012;28;20057;-65
2023/12/04 01:00:03;;;;;;;18.95;14.93;;;;;;;0.43;64.31;100340.94;10339794;28;20054;-63
2023/12/04 01:05:05;;;;;;;18.80;14.50;;;;;;;0.40;64.58;100341.06;10333047;28;20135;-63
2023/12/04 01:10:08;;;;;;;17.88;13.93;;;;;;;0.42;64.43;100323.50;10357047;28;20181;-63
2023/12/04 01:15:10;;;;;;;17.00;13.63;;;;;;;0.39;64.17;100305.28;10340969;28;20054;-65
2023/12/04 01:20:13;;;;;;;19.55;14.80;;;;;;;0.46;64.38;100325.09;10329580;28;20158;-64
2023/12/04 01:25:14;;;;;;;16.85;13.80;;;;;;;0.42;64.28;100313.03;10351287;28;20064;-62
2023/12/04 01:30:16;;;;;;;17.27;13.55;;;;;;;0.45;63.99;100305.94;10356647;28;20140;-62
2023/12/04 01:35:18;;;;;;;18.88;15.20;;;;;;;0.32;63.50;100295.03;10354144;28;20206;-62
2023/12/04 01:40:20;;;;;;;16.13;13.27;;;;;;;0.32;64.31;100300.28;10340592;28;20056;-62
2023/12/04 01:45:21;;;;;;;19.63;14.77;;;;;;;0.24;63.61;100293.63;10320799;28;20056;-64
2023/12/04 01:50:24;;;;;;;19.35;14.95;;;;;;;0.32;63.64;100287.19;10346401;28;20073;-64
2023/12/04 01:55:26;;;;;;;18.50;15.25;;;;;;;0.25;63.60;100283.09;10355640;28;20104;-64
2023/12/04 02:00:30;;;;;;;19.02;15.57;;;;;;;0.14;63.25;100280.88;10344169;28;20068;-63
2023/12/04 02:05:33;;;;;;;19.15;14.73;;;;;;;0.14;64.12;100272.19;10326610;28;20656;-62
2023/12/04 02:10:38;;;;;;;18.33;14.35;;;;;;;0.05;63.37;100285.59;10339816;28;20044;-62
2023/12/04 02:15:40;;;;;;;18.08;14.65;;;;;;;-0.02;63.45;100283.19;10341599;28;20041;-63
2023/12/04 02:20:43;;;;;;;19.70;15.65;;;;;;;-0.12;63.65;100281.84;10343237;28;20072;-63
2023/12/04 02:25:44;;;;;;;17.13;15.07;;;;;;;0.01;63.74;100281.38;10353299;28;20041;-63
2023/12/04 02:30:49;;;;;;;19.15;15.60;;;;;;;-0.01;63.55;100284.91;10327860;28;20041;-62
2023/12/04 02:35:53;;;;;;;18.63;14.65;;;;;;;-0.07;63.74;100272.03;10343419;28;20702;-62
2023/12/04 02:40:55;;;;;;;18.58;15.55;;;;;;;-0.19;63.71;100243.72;10337006;28;20053;-63
2023/12/04 02:45:56;;;;;;;20.98;15.65;;;;;;;-0.21;63.57;100242.88;10343722;28;20049;-64
2023/12/04 02:50:58;;;;;;;18.10;14.65;;;;;;;-0.18;63.73;100245.44;10347759;28;20056;-63
2023/12/04 02:56:00;;;;;;;20.77;15.25;;;;;;;-0.34;63.67;100250.34;10338873;28;20068;-64
2023/12/04 03:01:01;;;;;;;20.58;15.32;;;;;;;-0.30;63.66;100228.41;10336435;28;20535;-63
2023/12/04 03:06:03;;;;;;;19.17;15.23;;;;;;;-0.32;63.82;100226.75;10333059;28;20049;-63
2023/12/04 03:11:05;;;;;;;17.50;14.65;;;;;;;-0.29;63.86;100221.41;10326937;28;20137;-63
2023/12/04 03:16:15;;;;;;;19.85;15.43;;;;;;;-0.27;63.30;100214.34;10335712;28;20068;-64
2023/12/04 03:21:23;;;;;;;19.50;15.48;;;;;;;-0.34;62.92;100187.56;10335215;28;20172;-65
2023/12/04 03:26:25;;;;;;;17.55;15.02;;;;;;;-0.36;63.34;100197.25;10352662;28;20123;-63
2023/12/04 03:31:28;;;;;;;18.55;14.68;;;;;;;-0.31;63.81;100195.28;10336716;28;20659;-63
2023/12/04 03:36:30;;;;;;;18.83;15.07;;;;;;;-0.28;63.44;100196.97;10353257;28;20046;-61
2023/12/04 03:41:32;;;;;;;19.23;14.98;;;;;;;-0.30;63.94;100169.97;10339289;28;20046;-63
2023/12/04 03:46:33;;;;;;;21.70;15.68;;;;;;;-0.23;63.33;100174.94;10340613;28;20053;-62
2023/12/04 03:51:35;;;;;;;19.02;15.32;;;;;;;-0.19;63.02;100160.81;10329796;28;20069;-63
2023/12/04 03:56:37;;;;;;;21.20;15.73;;;;;;;-0.13;63.25;100159.75;10335171;28;20066;-63
2023/12/04 04:01:40;;;;;;;19.90;14.25;;;;;;;-0.19;62.76;100144.28;10336232;28;20064;-63
2023/12/04 04:06:41;;;;;;;19.15;15.60;;;;;;;-0.36;63.20;100127.47;10353304;28;20060;-62
2023/12/04 04:11:43;;;;;;;19.08;15.18;;;;;;;-0.30;63.54;100125.50;10345036;28;20060;-61
2023/12/04 04:16:46;;;;;;;20.10;15.95;;;;;;;-0.27;63.51;100135.84;10345189;28;20415;-63
2023/12/04 04:21:49;;;;;;;20.80;15.98;;;;;;;-0.41;63.04;100139.00;10340765;28;20041;-63
2023/12/04 04:26:50;;;;;;;18.15;15.10;;;;;;;-0.43;63.47;100131.22;10324852;28;20050;-64
2023/12/04 04:31:52;;;;;;;20.55;15.63;;;;;;;-0.40;63.56;100143.31;10333610;28;20065;-62
2023/12/04 04:36:53;;;;;;;19.00;15.45;;;;;;;-0.46;63.65;100140.94;10344054;28;20100;-62
2023/12/04 04:41:55;;;;;;;17.88;14.82;;;;;;;-0.47;63.88;100132.22;10346089;28;20311;-63
2023/12/04 04:46:56;;;;;;;20.15;15.27;;;;;;;-0.46;63.69;100152.25;10339755;28;20164;-62
2023/12/04 04:51:58;;;;;;;21.50;16.83;;;;;;;-0.44;63.88;100150.41;10342507;28;20079;-63
2023/12/04 04:57:03;;;;;;;21.13;17.17;;;;;;;-0.36;63.56;100135.31;10339324;28;20049;-62
2023/12/04 05:02:04;;;;;;;20.58;16.05;;;;;;;-0.39;63.87;100121.47;10337810;28;20124;-63
2023/12/04 05:07:06;;;;;;;18.83;14.77;;;;;;;-0.26;63.55;100124.50;10329815;28;20060;-63
2023/12/04 05:12:07;;;;;;;18.77;15.30;;;;;;;-0.21;63.69;100110.34;10349123;28;20049;-62
2023/12/04 05:17:09;;;;;;;18.17;14.85;;;;;;;-0.19;63.03;100108.50;10356438;28;20587;-63
2023/12/04 05:22:10;;;;;;;18.35;14.95;;;;;;;-0.15;63.38;100087.44;10338068;28;20085;-63
2023/12/04 05:27:12;;;;;;;19.27;15.18;;;;;;;-0.09;62.93;100101.16;10343210;28;20057;-64
2023/12/04 05:32:13;;;;;;;21.40;15.93;;;;;;;-0.09;63.15;100103.78;10345278;28;20144;-63
2023/12/04 05:37:15;;;;;;;20.70;16.40;;;;;;;-0.26;63.50;100098.34;10341523;28;20053;-63
2023/12/04 05:42:16;;;;;;;22.23;15.68;;;;;;;-0.20;63.24;100092.88;10338179;28;20045;-61
2023/12/04 05:47:17;;;;;;;21.35;16.00;;;;;;;-0.13;62.95;100086.47;10342418;28;20693;-64
2023/12/04 05:52:19;;;;;;;20.50;16.27;;;;;;;-0.08;62.76;100081.06;10335645;28;20562;-63
2023/12/04 05:57:21;;;;;;;18.15;14.90;;;;;;;-0.05;63.23;100076.56;10338645;28;20061;-64
2023/12/04 06:02:22;;;;;;;18.10;14.25;;;;;;;-0.13;63.04;100070.78;10336645;28;20054;-64
2023/12/04 06:07:25;;;;;;;20.08;14.90;;;;;;;-0.07;62.64;100065.31;10331192;28;20061;-63
2023/12/04 06:12:27;;;;;;;19.90;16.90;;;;;;;-0.14;62.63;100058.59;10341087;28;20057;-64
2023/12/04 06:17:29;;;;;;;21.92;19.45;;;;;;;-0.23;62.38;100053.75;10343100;28;20058;-63
2023/12/04 06:22:31;;;;;;;23.55;20.92;;;;;;;-0.40;62.40;100041.31;10335737;28;20045;-62
2023/12/04 06:27:33;;;;;;;34.60;25.08;;;;;;;-0.45;63.07;100024.94;10356123;28;20049;-63
2023/12/04 06:32:50;;;;;;;;;;;;;;;-0.43;62.92;100050.13;10335820;28;20068;-62
2023/12/04 06:37:54;;;;;;;22.83;19.40;;;;;;;-0.37;63.36;100047.28;10336988;28;20413;-63
2023/12/04 06:42:55;;;;;;;34.20;25.88;;;;;;;-0.25;63.42;100056.41;10340865;28;20486;-66
2023/12/04 06:47:58;;;;;;;27.08;23.33;;;;;;;-0.18;63.45;100054.44;10347356;28;20046;-64
2023/12/04 06:53:00;;;;;;;24.02;21.10;;;;;;;-0.15;62.73;100056.94;10351203;28;20551;-63
2023/12/04 06:58:02;;;;;;;17.15;13.98;;;;;;;-0.17;63.28;100058.72;10349496;28;20046;-64
2023/12/04 07:03:04;;;;;;;19.02;15.90;;;;;;;-0.19;63.02;100026.56;10335879;28;20061;-63
2023/12/04 07:08:05;;;;;;;17.95;14.93;;;;;;;-0.19;62.59;100022.16;10340177;28;20458;-61
2023/12/04 07:13:08;;;;;;;19.40;16.48;;;;;;;-0.07;63.49;100017.38;10336607;28;20156;-64
2023/12/04 07:18:10;;;;;;;16.33;14.23;;;;;;;-0.10;62.88;100012.25;10335053;28;20038;-62
2023/12/04 07:23:11;;;;;;;18.33;14.57;;;;;;;-0.09;63.08;99999.13;10335988;28;20056;-64
2023/12/04 07:28:13;;;;;;;19.80;16.23;;;;;;;-0.03;63.23;99988.38;10332858;28;20057;-63
2023/12/04 07:33:15;;;;;;;21.58;16.52;;;;;;;-0.09;63.16;99977.31;10329088;28;20510;-63
2023/12/04 07:38:17;;;;;;;25.05;18.42;;;;;;;-0.07;62.72;99971.09;10317911;28;20046;-65
2023/12/04 07:43:18;;;;;;;36.60;25.90;;;;;;;-0.13;62.33;99963.50;10328651;28;20917;-64
2023/12/04 07:48:20;;;;;;;21.63;17.73;;;;;;;-0.26;63.31;99991.06;10333680;28;20555;-62
2023/12/04 07:53:22;;;;;;;23.58;19.67;;;;;;;-0.22;63.61;99976.97;10338881;28;20052;-62
2023/12/04 07:58:24;;;;;;;19.13;15.60;;;;;;;-0.27;63.05;99953.63;10334907;28;20053;-63
2023/12/04 08:03:25;;;;;;;19.42;15.73;;;;;;;-0.10;62.50;99967.78;10330845;28;20083;-63
2023/12/04 08:08:27;;;;;;;18.98;15.43;;;;;;;-0.04;62.95;99962.28;10349613;28;20064;-64
2023/12/04 08:13:29;;;;;;;16.10;14.35;;;;;;;-0.02;62.60;99956.06;10349915;28;20383;-64
2023/12/04 08:18:31;;;;;;;19.75;15.65;;;;;;;0.08;62.38;99959.16;10345826;28;20056;-63
2023/12/04 08:23:32;;;;;;;15.98;13.48;;;;;;;0.06;62.64;99954.88;10351469;28;20181;-63
2023/12/04 08:28:35;;;;;;;17.08;14.18;;;;;;;0.11;60.96;99958.19;10348455;28;20739;-62
2023/12/04 08:33:37;;;;;;;17.30;13.13;;;;;;;0.12;60.85;99942.41;10340949;28;20046;-62
2023/12/04 08:38:39;;;;;;;17.30;13.40;;;;;;;0.17;61.00;99942.22;10371544;28;20050;-64
2023/12/04 08:43:41;;;;;;;17.48;13.85;;;;;;;0.19;60.59;99929.06;10353427;28;20054;-62
2023/12/04 08:48:43;;;;;;;16.75;12.75;;;;;;;0.24;60.33;99907.00;10345599;28;20049;-62
2023/12/04 08:53:44;;;;;;;15.40;13.02;;;;;;;0.05;60.96;99879.94;10345568;28;20579;-62
2023/12/04 08:58:50;;;;;;;16.55;12.50;;;;;;;0.33;60.51;99900.50;10352317;28;20049;-64
2023/12/04 09:03:52;;;;;;;18.95;14.23;;;;;;;0.28;59.87;99892.00;10343368;28;20057;-64
2023/12/04 09:08:55;;;;;;;17.27;14.70;;;;;;;0.41;59.72;99895.78;10349228;28;20574;-63
2023/12/04 09:14:07;;;;;;;15.70;12.93;;;;;;;0.51;60.92;99889.22;10341617;28;20575;-66
2023/12/04 09:19:10;;;;;;;15.40;13.65;;;;;;;0.68;60.02;99896.31;10326380;28;20045;-64
2023/12/04 09:24:13;;;;;;;17.10;13.82;;;;;;;0.50;58.73;99873.59;10339657;28;20535;-65
2023/12/04 09:29:16;;;;;;;17.85;14.23;;;;;;;0.56;58.96;99889.03;10339074;28;20050;-62
2023/12/04 09:34:18;;;;;;;19.00;13.40;;;;;;;0.52;59.38;99892.69;10356459;28;20122;-63
2023/12/04 09:39:19;;;;;;;18.42;13.52;;;;;;;0.51;59.48;99894.47;10342612;28;20119;-63
2023/12/04 09:44:24;;;;;;;14.43;11.70;;;;;;;0.54;59.85;99885.59;10344875;28;20152;-62
2023/12/04 09:49:28;;;;;;;16.25;12.13;;;;;;;0.46;58.85;99858.91;10335158;28;20120;-63
2023/12/04 09:54:30;;;;;;;18.33;12.02;;;;;;;0.66;58.98;99869.34;10340234;28;20121;-62
2023/12/04 09:59:35;;;;;;;15.43;12.45;;;;;;;0.59;58.84;99872.31;10336943;28;20776;-61
2023/12/04 10:04:37;;;;;;;16.63;11.73;;;;;;;0.62;58.55;99859.91;10348157;28;20046;-61
2023/12/04 10:09:39;;;;;;;16.90;13.27;;;;;;;0.61;58.38;99866.06;10343195;28;20146;-63
2023/12/04 10:14:40;;;;;;;24.73;16.90;;;;;;;0.67;58.06;99862.31;10331996;28;20046;-62
2023/12/04 10:19:42;;;;;;;18.25;15.13;;;;;;;0.63;58.13;99848.53;10341515;28;20158;-64
2023/12/04 10:24:43;;;;;;;16.80;12.88;;;;;;;0.65;57.94;99837.97;10347872;28;20054;-64
2023/12/04 10:29:49;;;;;;;14.90;12.48;;;;;;;0.75;57.81;99839.25;10327707;28;20645;-62
2023/12/04 10:34:50;;;;;;;13.93;11.95;;;;;;;0.74;57.48;99824.44;10320608;28;20108;-64
2023/12/04 10:39:51;;;;;;;14.60;11.90;;;;;;;0.58;57.21;99805.97;10340760;28;20054;-64
2023/12/04 10:44:57;;;;;;;16.08;12.50;;;;;;;0.76;57.79;99819.13;10338294;28;20085;-62
2023/12/04 10:49:59;;;;;;;14.95;12.00;;;;;;;0.74;57.32;99815.75;10330318;28;20057;-63
2023/12/04 10:55:06;;;;;;;15.18;12.00;;;;;;;0.86;57.42;99830.88;10325932;28;20080;-61
2023/12/04 11:00:08;;;;;;;16.42;12.20;;;;;;;0.85;56.59;99814.28;10340012;28;20064;-62
2023/12/04 11:05:17;;;;;;;14.18;11.38;;;;;;;0.88;56.43;99805.44;10347568;28;20049;-62
2023/12/04 11:10:23;;;;;;;15.25;11.38;;;;;;;0.87;56.35;99814.22;10340396;28;20049;-62
2023/12/04 11:15:25;;;;;;;14.18;10.98;;;;;;;0.82;56.79;99803.13;10299115;28;20045;-63
2023/12/04 11:20:30;;;;;;;14.20;11.23;;;;;;;0.91;56.32;99794.81;10348293;28;20052;-63
2023/12/04 11:25:35;;;;;;;13.80;11.15;;;;;;;1.01;55.85;99782.97;10320204;28;20579;-63
2023/12/04 11:30:37;;;;;;;15.57;12.68;;;;;;;0.85;55.95;99782.00;10334130;28;20182;-63
2023/12/04 11:35:39;;;;;;;15.27;11.90;;;;;;;0.90;56.35;99781.78;10323554;28;20060;-62
2023/12/04 11:40:42;;;;;;;13.35;11.52;;;;;;;0.84;56.32;99769.81;10330801;28;20599;-65
2023/12/04 11:45:49;;;;;;;16.75;13.25;;;;;;;0.83;56.30;99757.66;10341844;28;20182;-60
2023/12/04 11:50:51;;;;;;;15.30;12.27;;;;;;;0.73;56.66;99714.50;10333375;28;20049;-65
2023/12/04 11:55:56;;;;;;;15.77;12.13;;;;;;;0.93;56.61;99727.47;10337165;28;20635;-66
2023/12/04 12:01:00;;;;;;;14.25;11.48;;;;;;;0.93;57.04;99703.03;10324893;28;20478;-65
2023/12/04 12:06:03;;;;;;;15.02;12.82;;;;;;;0.98;59.43;99703.66;10320603;28;21100;-69
2023/12/04 12:11:06;;;;;;;14.75;11.70;;;;;;;0.72;61.67;99691.81;10335124;28;20072;-68
2023/12/04 12:16:07;;;;;;;18.05;13.75;;;;;;;0.73;63.26;99689.13;10347988;28;20134;-66
2023/12/04 12:21:10;;;;;;;14.27;11.98;;;;;;;0.49;65.02;99646.63;10334541;28;20081;-68
2023/12/04 12:26:11;;;;;;;13.27;11.88;;;;;;;0.52;67.32;99662.19;10340882;28;21070;-70
2023/12/04 12:31:13;;;;;;;15.75;12.57;;;;;;;0.50;69.64;99649.19;10332212;28;20503;-70
2023/12/04 12:36:17;;;;;;;17.75;13.40;;;;;;;0.52;70.47;99646.50;10329298;28;20589;-66
2023/12/04 12:41:20;;;;;;;16.13;13.10;;;;;;;0.41;71.59;99630.47;10342661;28;20060;-67
2023/12/04 12:46:23;;;;;;;17.55;13.18;;;;;;;0.52;72.53;99636.84;10338862;28;20058;-70
2023/12/04 12:51:26;;;;;;;14.15;11.93;;;;;;;0.48;73.17;99616.13;10340224;28;20046;-67
2023/12/04 12:56:28;;;;;;;17.38;13.57;;;;;;;0.59;72.89;99605.97;10345343;28;20181;-67
2023/12/04 13:01:33;;;;;;;15.77;12.55;;;;;;;0.49;73.00;99609.97;10343079;28;20049;-67
2023/12/04 13:06:36;;;;;;;14.23;12.32;;;;;;;0.38;74.20;99594.78;10341060;28;20049;-69
2023/12/04 13:11:38;;;;;;;17.55;13.38;;;;;;;0.34;74.77;99578.38;10346555;28;20053;-67
2023/12/04 13:16:40;;;;;;;17.40;13.07;;;;;;;0.33;75.88;99565.34;10320254;28;20443;-66
2023/12/04 13:21:43;;;;;;;15.48;12.30;;;;;;;0.35;76.14;99543.41;10353831;28;20084;-65
2023/12/04 13:26:45;;;;;;;16.13;12.00;;;;;;;0.31;76.84;99549.72;10351104;28;20160;-67
2023/12/04 13:31:49;;;;;;;16.67;12.48;;;;;;;0.30;77.47;99534.97;10346946;28;20057;-68
2023/12/04 13:36:53;;;;;;;14.10;12.23;;;;;;;0.35;77.37;99530.34;10356780;28;20442;-66
2023/12/04 13:47:18;;;;;;;16.08;13.45;;;;;;;0.41;77.78;99508.22;10337445;28;20126;-69
2023/12/04 13:52:22;;;;;;;21.55;16.45;;;;;;;0.33;78.49;99492.91;10334906;28;20635;-67
2023/12/04 13:57:32;;;;;;;37.28;23.42;;;;;;;0.47;78.75;99488.75;10342261;28;21313;-69
2023/12/04 14:02:37;;;;;;;56.88;30.95;;;;;;;0.52;79.05;99481.50;10336715;28;20249;-74
2023/12/04 14:07:39;;;;;;;46.75;28.70;;;;;;;0.59;79.33;99467.16;10340323;28;20053;-72
2023/12/04 14:12:44;;;;;;;37.97;25.60;;;;;;;0.52;80.03;99463.16;10323919;28;20207;-68
2023/12/04 14:17:47;;;;;;;38.70;29.85;;;;;;;0.64;79.43;99462.53;10334424;28;20148;-67
2023/12/04 14:22:48;;;;;;;33.55;26.23;;;;;;;0.69;80.12;99451.81;10338910;28;20285;-68
2023/12/04 14:27:50;;;;;;;28.02;21.90;;;;;;;0.66;80.23;99437.13;10329531;28;20049;-70
2023/12/04 14:32:54;;;;;;;27.80;22.95;;;;;;;0.75;80.44;99425.31;10342744;28;20670;-71
2023/12/04 14:37:56;;;;;;;25.08;19.95;;;;;;;0.78;80.50;99426.91;10342947;28;20045;-68
2023/12/04 14:42:58;;;;;;;23.05;18.33;;;;;;;0.73;80.41;99415.81;10330250;28;20057;-70
2023/12/04 14:47:59;;;;;;;21.33;17.33;;;;;;;0.81;80.75;99397.91;10341363;28;20232;-68
2023/12/04 14:53:15;;;;;;;18.77;15.90;;;;;;;0.86;80.70;99407.22;10341293;28;20060;-64
2023/12/04 15:04:19;;;;;;;20.60;16.42;;;;;;;0.85;81.08;99395.03;10333329;28;20100;-63
2023/12/04 15:09:49;;;;;;;19.20;15.93;;;;;;;0.83;81.03;99393.44;10341701;28;20786;-63
2023/12/04 15:14:44;;;;;;;26.10;19.00;;;;;;;0.74;81.59;99392.16;10337918;28;20046;-63
2023/12/04 15:20:13;;;;;;;22.77;17.33;;;;;;;0.70;82.34;99367.06;10334539;28;20671;-65
2023/12/04 15:25:11;;;;;;;;;;;;;;;0.69;82.34;99368.84;10328213;28;20054;-64
2023/12/04 15:30:14;;;;;;;18.98;14.48;;;;;;;0.80;82.98;99362.19;10337369;28;19924;-66
2023/12/04 15:35:15;;;;;;;16.95;13.70;;;;;;;0.89;82.00;99361.66;10336558;28;20046;-64
2023/12/04 15:40:18;;;;;;;16.05;12.52;;;;;;;0.85;82.65;99347.88;10358369;28;20062;-64
2023/12/04 15:45:19;;;;;;;14.50;12.80;;;;;;;0.98;82.21;99341.97;10351472;28;20160;-66
2023/12/04 15:50:22;;;;;;;15.70;12.00;;;;;;;1.06;82.14;99330.13;10337414;28;20734;-64
2023/12/04 15:55:26;;;;;;;17.05;12.52;;;;;;;1.01;82.32;99323.47;10338586;28;20056;-65
2023/12/04 16:00:27;;;;;;;16.95;12.95;;;;;;;1.11;82.07;99326.41;10338748;28;20353;-60
2023/12/04 16:05:29;;;;;;;15.48;13.32;;;;;;;1.05;83.00;99323.19;10352910;28;20641;-63
2023/12/04 16:10:33;;;;;;;14.50;12.05;;;;;;;1.12;82.83;99323.69;10350874;28;20058;-64
2023/12/04 16:15:34;;;;;;;13.77;12.02;;;;;;;1.06;82.60;99303.91;10358077;28;20102;-63
2023/12/04 16:20:37;;;;;;;17.25;14.02;;;;;;;1.21;82.92;99311.84;10337467;28;20058;-62
2023/12/04 16:25:39;;;;;;;16.20;12.60;;;;;;;1.24;83.26;99306.41;10331953;28;20053;-59
2023/12/04 16:30:43;;;;;;;17.95;14.82;;;;;;;1.21;83.79;99304.81;10359482;28;20729;-61
2023/12/04 16:35:45;;;;;;;16.17;13.88;;;;;;;1.27;83.36;99298.38;10351751;28;20053;-63
2023/12/04 16:40:46;;;;;;;15.90;13.32;;;;;;;1.28;83.56;99284.34;10328357;28;20115;-62
2023/12/04 16:45:47;;;;;;;20.85;17.65;;;;;;;1.26;83.93;99277.50;10326824;28;20144;-67
2023/12/04 16:50:50;;;;;;;16.35;13.18;;;;;;;1.33;83.69;99268.34;10355027;28;20069;-64
2023/12/04 16:55:51;;;;;;;17.23;13.18;;;;;;;1.34;84.02;99268.25;10358503;28;20788;-64
2023/12/04 17:00:53;;;;;;;15.90;13.48;;;;;;;1.26;84.90;99259.13;10349446;28;20423;-63
2023/12/04 17:05:55;;;;;;;16.65;13.82;;;;;;;1.31;84.90;99262.34;10343901;28;20045;-65
2023/12/04 17:10:57;;;;;;;15.80;12.57;;;;;;;1.36;84.99;99258.50;10330979;28;20172;-63
2023/12/04 17:15:58;;;;;;;17.17;12.23;;;;;;;1.36;84.52;99242.78;10356893;28;20203;-66
2023/12/04 17:21:00;;;;;;;15.25;12.20;;;;;;;1.34;85.32;99246.44;10332924;28;20115;-63
2023/12/04 17:26:01;;;;;;;13.73;11.60;;;;;;;1.31;86.12;99239.59;10356820;28;20120;-62
2023/12/04 17:31:03;;;;;;;15.30;12.95;;;;;;;1.16;86.37;99209.03;10334970;28;20573;-63
2023/12/04 17:36:05;;;;;;;14.43;11.82;;;;;;;1.27;86.32;99222.34;10329702;28;20057;-63
2023/12/04 17:41:09;;;;;;;14.27;11.80;;;;;;;1.29;87.02;99230.13;10344853;28;20088;-63
2023/12/04 17:46:10;;;;;;;13.73;12.25;;;;;;;1.32;86.74;99225.56;10347080;28;20242;-64
2023/12/04 17:51:16;;;;;;;15.02;12.73;;;;;;;1.31;86.98;99213.38;10341708;28;20054;-63
2023/12/04 17:56:18;;;;;;;;;;;;;;;1.26;86.88;99204.91;10345314;28;20124;-63
2023/12/04 18:01:19;;;;;;;14.05;11.65;;;;;;;1.22;86.84;99204.25;10331160;28;19929;-65
2023/12/04 18:06:27;;;;;;;15.18;12.13;;;;;;;1.15;86.76;99195.06;10342075;28;20057;-64
2023/12/04 18:11:30;;;;;;;15.95;12.40;;;;;;;1.26;86.83;99201.47;10347048;28;20061;-65
2023/12/04 18:16:31;;;;;;;14.60;12.18;;;;;;;1.16;86.70;99195.94;10348090;28;20057;-64
2023/12/04 18:21:33;;;;;;;13.95;12.40;;;;;;;1.27;86.24;99193.50;10334786;28;20085;-63
2023/12/04 18:26:36;;;;;;;16.77;12.07;;;;;;;1.30;86.21;99180.22;10346534;28;20418;-62
2023/12/04 18:31:38;;;;;;;15.43;12.68;;;;;;;1.34;85.76;99173.84;10346170;28;20053;-63
2023/12/04 18:36:45;;;;;;;15.90;13.80;;;;;;;1.29;85.81;99162.81;10356276;28;20424;-63
2023/12/04 18:41:47;;;;;;;14.38;12.50;;;;;;;1.29;85.86;99168.06;10334738;28;20816;-62
2023/12/04 18:46:56;;;;;;;16.40;13.60;;;;;;;1.27;86.37;99154.19;10339183;28;20045;-64
2023/12/04 18:51:58;;;;;;;15.07;12.82;;;;;;;1.26;86.77;99156.88;10332830;28;20108;-63
2023/12/04 18:57:01;;;;;;;15.95;13.77;;;;;;;1.27;86.25;99135.00;10342843;28;20062;-64
2023/12/04 19:02:03;;;;;;;15.75;12.90;;;;;;;1.36;86.06;99143.13;10344384;28;20164;-65
2023/12/04 19:07:06;;;;;;;15.68;12.82;;;;;;;1.30;86.41;99127.78;10341121;28;20396;-62
2023/12/04 19:12:08;;;;;;;14.68;12.65;;;;;;;1.41;85.98;99120.13;10339223;28;20819;-64
2023/12/04 19:17:10;;;;;;;17.27;14.32;;;;;;;1.51;86.30;99124.78;10334261;28;20196;-63
2023/12/04 19:22:11;;;;;;;16.90;13.57;;;;;;;1.60;85.84;99124.22;10349391;28;20061;-63
2023/12/04 19:27:14;;;;;;;17.25;14.68;;;;;;;1.58;86.17;99110.38;10336072;28;20069;-63
2023/12/04 19:32:15;;;;;;;19.48;14.77;;;;;;;1.70;85.88;99114.84;10338231;28;20042;-63
2023/12/04 19:37:22;;;;;;;18.50;14.68;;;;;;;1.79;85.63;99102.09;10340260;28;20061;-62
2023/12/04 19:42:26;;;;;;;16.77;13.32;;;;;;;1.80;85.66;99103.78;10336595;28;20069;-64
2023/12/04 19:47:28;;;;;;;15.73;13.70;;;;;;;1.76;85.18;99082.97;10335073;28;20330;-63
2023/12/04 19:52:30;;;;;;;16.38;13.48;;;;;;;1.86;84.84;99090.28;10338724;28;20085;-64
2023/12/04 19:57:32;;;;;;;17.35;13.88;;;;;;;1.87;85.36;99084.09;10338200;28;20050;-63
2023/12/04 20:02:35;;;;;;;17.50;13.85;;;;;;;1.93;85.47;99078.44;10337125;28;20406;-63
2023/12/04 20:07:37;;;;;;;18.27;13.57;;;;;;;1.96;85.03;99078.25;10353407;28;20072;-63
2023/12/04 20:12:38;;;;;;;15.50;12.60;;;;;;;1.97;85.02;99076.47;10344781;28;20196;-63
2023/12/04 20:17:42;;;;;;;15.10;12.10;;;;;;;2.01;84.70;99070.94;10344911;28;20093;-64
2023/12/04 20:22:44;;;;;;;15.88;14.15;;;;;;;2.02;84.73;99069.97;10354909;28;20059;-63
2023/12/04 20:27:49;;;;;;;15.27;12.35;;;;;;;2.01;84.49;99067.47;10349425;28;20111;-62
2023/12/04 20:32:50;;;;;;;13.98;12.02;;;;;;;2.00;84.18;99077.13;10363940;28;20049;-64
2023/12/04 20:37:54;;;;;;;15.18;12.80;;;;;;;2.03;83.96;99062.97;10332648;28;20554;-62
2023/12/04 20:42:56;;;;;;;14.15;11.88;;;;;;;2.11;83.90;99053.63;10343751;28;20053;-63
2023/12/04 20:47:57;;;;;;;14.13;12.13;;;;;;;2.16;83.48;99055.13;10352291;28;20478;-63
2023/12/04 20:53:03;;;;;;;16.52;13.05;;;;;;;2.08;83.58;99035.47;10343321;28;20513;-64
2023/12/04 20:58:05;;;;;;;14.35;12.82;;;;;;;2.00;83.10;99029.88;10344221;28;20054;-64
2023/12/04 21:03:07;;;;;;;16.15;13.55;;;;;;;1.83;83.21;98990.75;10345745;28;20133;-63
2023/12/04 21:08:08;;;;;;;14.43;12.60;;;;;;;2.12;83.28;99026.44;10359924;28;20056;-62
2023/12/04 21:13:10;;;;;;;15.90;13.55;;;;;;;2.04;84.04;99009.50;10337172;28;20119;-67
2023/12/04 21:18:13;;;;;;;14.90;12.82;;;;;;;2.15;83.69;99024.56;10340775;28;20057;-63
2023/12/04 21:23:15;;;;;;;14.65;13.15;;;;;;;2.11;84.16;99019.50;10335294;28;20278;-64
2023/12/04 21:28:16;;;;;;;18.63;13.27;;;;;;;2.04;84.48;99013.00;10346959;28;20236;-64
2023/12/04 21:33:18;;;;;;;18.30;14.20;;;;;;;2.08;84.14;99013.63;10341394;28;20041;-62
2023/12/04 21:38:20;;;;;;;16.98;13.90;;;;;;;1.86;83.82;98982.69;10342022;28;20069;-64
2023/12/04 21:43:22;;;;;;;16.58;14.13;;;;;;;1.92;84.33;98987.53;10308549;28;20063;-62
2023/12/04 21:48:23;;;;;;;16.48;14.05;;;;;;;1.91;84.63;99002.44;10351871;28;20069;-61
2023/12/04 21:53:25;;;;;;;17.30;13.57;;;;;;;1.89;84.83;99003.47;10339440;28;20164;-63
2023/12/04 21:58:30;;;;;;;15.75;13.68;;;;;;;1.90;85.29;98985.00;10336968;28;20060;-63
2023/12/04 22:03:34;;;;;;;17.33;14.85;;;;;;;1.91;85.67;98981.44;10330707;28;20045;-61
2023/12/04 22:08:36;;;;;;;16.45;12.90;;;;;;;1.91;85.30;98972.75;10329343;28;20061;-61
2023/12/04 22:13:37;;;;;;;16.63;13.90;;;;;;;1.89;85.40;98971.97;10357565;28;20591;-62
2023/12/04 22:18:40;;;;;;;16.00;13.43;;;;;;;1.83;84.94;98972.38;10325167;28;20115;-62
2023/12/04 22:23:42;;;;;;;16.83;13.93;;;;;;;1.59;85.95;98952.03;10343560;28;20502;-60
2023/12/04 22:28:44;;;;;;;16.77;14.95;;;;;;;1.75;86.05;98971.09;10345092;28;20049;-61
2023/12/04 22:33:45;;;;;;;16.23;13.52;;;;;;;1.68;85.73;98972.44;10337490;28;20080;-63
2023/12/04 22:38:47;;;;;;;17.98;14.60;;;;;;;1.71;86.38;98972.25;10341240;28;20138;-64
2023/12/04 22:43:52;;;;;;;16.15;14.38;;;;;;;1.79;86.31;98970.88;10338119;28;20053;-62
2023/12/04 22:48:55;;;;;;;;;;;;;;;1.84;86.19;98964.41;10330720;28;20049;-62
2023/12/04 22:53:57;;;;;;;18.45;14.48;;;;;;;1.90;86.29;98969.25;10338915;28;19987;-61
2023/12/04 22:58:59;;;;;;;17.83;14.10;;;;;;;1.88;86.25;98965.06;10343727;28;20065;-64
2023/12/04 23:04:01;;;;;;;16.23;14.15;;;;;;;1.91;86.52;98959.63;10341296;28;20061;-63
2023/12/04 23:09:03;;;;;;;17.17;14.90;;;;;;;1.80;86.88;98947.16;10337619;28;20073;-60
2023/12/04 23:14:06;;;;;;;16.02;13.68;;;;;;;1.88;87.42;98944.06;10334515;28;20062;-63
2023/12/04 23:19:10;;;;;;;18.33;15.20;;;;;;;1.87;87.35;98952.88;10336700;28;20495;-62